sensor_id;sensor_type;location;lat;lon;timestamp;pressure;altitude;pressure_sealevel;temperature;humidity
78142;BME280;67393;52.620;13.482;2023-01-29T08:48:05;102025.66;;;0.13;89.77
78142;BME280;67393;52.620;13.482;2023-01-29T08:50:31;102019.97;;;0.25;90.55
78142;BME280;67393;52.620;13.482;2023-01-29T08:52:59;102017.50;;;0.30;89.63
78142;BME280;67393;52.620;13.482;2023-01-29T08:55:25;102009.00;;;0.35;88.43
78142;BME280;67393;52.620;13.482;2023-01-29T08:57:51;102005.56;;;0.36;88.44
78142;BME280;67393;52.620;13.482;2023-01-29T09:00:16;102004.19;;;0.47;88.58
78142;BME280;67393;52.620;13.482;2023-01-29T09:02:42;102012.16;;;0.27;88.99
78142;BME280;67393;52.620;13.482;2023-01-29T09:05:08;102022.44;;;0.20;89.41
78142;BME280;67393;52.620;13.482;2023-01-29T09:07:34;102008.25;;;0.14;89.44
78142;BME280;67393;52.620;13.482;2023-01-29T09:09:59;102013.25;;;0.08;90.12
78142;BME280;67393;52.620;13.482;2023-01-29T09:12:25;102019.59;;;0.14;90.24
78142;BME280;67393;52.620;13.482;2023-01-29T09:14:50;102015.09;;;0.10;89.95
78142;BME280;67393;52.620;13.482;2023-01-29T09:17:15;102013.31;;;0.09;90.33
78142;BME280;67393;52.620;13.482;2023-01-29T09:19:41;102007.50;;;0.16;90.14
78142;BME280;67393;52.620;13.482;2023-01-29T09:22:06;102010.88;;;0.14;90.26
78142;BME280;67393;52.620;13.482;2023-01-29T09:24:31;102023.97;;;0.15;90.03
78142;BME280;67393;52.620;13.482;2023-01-29T09:26:59;102021.34;;;0.15;90.21
78142;BME280;67393;52.620;13.482;2023-01-29T09:29:24;102019.75;;;0.19;90.49
78142;BME280;67393;52.620;13.482;2023-01-29T09:31:49;102014.53;;;0.19;90.02
78142;BME280;67393;52.620;13.482;2023-01-29T09:34:14;102004.03;;;0.17;90.04
78142;BME280;67393;52.620;13.482;2023-01-29T09:36:40;102008.53;;;0.21;89.57
78142;BME280;67393;52.620;13.482;2023-01-29T09:39:05;101998.94;;;0.20;89.89
78142;BME280;67393;52.620;13.482;2023-01-29T09:47:26;101992.97;;;0.24;89.90
78142;BME280;67393;52.620;13.482;2023-01-29T09:49:56;101992.09;;;0.24;90.33
78142;BME280;67393;52.620;13.482;2023-01-29T09:52:34;101986.00;;;0.23;90.35
78142;BME280;67393;52.620;13.482;2023-01-29T09:55:11;101988.00;;;0.32;89.56
78142;BME280;67393;52.620;13.482;2023-01-29T09:57:47;101983.63;;;0.31;89.34
78142;BME280;67393;52.620;13.482;2023-01-29T10:00:32;101972.38;;;0.34;89.82
78142;BME280;67393;52.620;13.482;2023-01-29T10:14:00;101958.38;;;0.57;88.13
78142;BME280;67393;52.620;13.482;2023-01-29T10:16:53;101959.56;;;0.67;87.98
78142;BME280;67393;52.620;13.482;2023-01-29T10:21:57;101971.03;;;0.72;87.30
78142;BME280;67393;52.620;13.482;2023-01-29T10:24:37;101972.81;;;0.73;86.63
78142;BME280;67393;52.620;13.482;2023-01-29T10:27:14;101971.34;;;0.81;86.92
78142;BME280;67393;52.620;13.482;2023-01-29T10:29:41;101974.13;;;0.87;86.60
78142;BME280;67393;52.620;13.482;2023-01-29T10:32:16;101970.78;;;0.91;86.62
78142;BME280;67393;52.620;13.482;2023-01-29T10:34:56;101960.44;;;0.94;86.07
78142;BME280;67393;52.620;13.482;2023-01-29T10:37:34;101954.34;;;0.95;85.62
78142;BME280;67393;52.620;13.482;2023-01-29T10:40:00;101943.91;;;0.95;85.39
78142;BME280;67393;52.620;13.482;2023-01-29T10:50:36;101933.97;;;1.12;84.90
78142;BME280;67393;52.620;13.482;2023-01-29T10:56:23;101912.69;;;1.30;84.42
78142;BME280;67393;52.620;13.482;2023-01-29T10:58:57;101906.00;;;1.40;83.49
78142;BME280;67393;52.620;13.482;2023-01-29T11:01:23;101893.84;;;1.42;84.21
78142;BME280;67393;52.620;13.482;2023-01-29T11:04:00;101889.97;;;1.58;84.18
78142;BME280;67393;52.620;13.482;2023-01-29T11:06:33;101891.66;;;1.57;83.92
78142;BME280;67393;52.620;13.482;2023-01-29T11:09:08;101889.09;;;1.59;83.26
78142;BME280;67393;52.620;13.482;2023-01-29T15:03:48;101680.53;;;1.18;88.88
78142;BME280;67393;52.620;13.482;2023-01-29T15:06:22;101677.91;;;1.17;89.18
78142;BME280;67393;52.620;13.482;2023-01-29T15:09:02;101672.66;;;1.15;89.78
78142;BME280;67393;52.620;13.482;2023-01-29T15:11:34;101667.34;;;1.14;89.72
78142;BME280;67393;52.620;13.482;2023-01-29T15:14:21;101680.44;;;1.14;89.19
78142;BME280;67393;52.620;13.482;2023-01-29T15:19:45;101663.78;;;1.10;90.13
78142;BME280;67393;52.620;13.482;2023-01-29T15:22:17;101665.50;;;1.10;89.77
78142;BME280;67393;52.620;13.482;2023-01-29T15:24:44;101653.28;;;1.09;89.94
78142;BME280;67393;52.620;13.482;2023-01-29T15:27:17;101653.25;;;1.07;89.52
78142;BME280;67393;52.620;13.482;2023-01-29T15:29:45;101645.47;;;1.09;89.15
78142;BME280;67393;52.620;13.482;2023-01-29T15:32:30;101634.91;;;1.06;89.23
78142;BME280;67393;52.620;13.482;2023-01-29T15:34:57;101641.03;;;1.06;89.65
78142;BME280;67393;52.620;13.482;2023-01-29T15:37:34;101636.59;;;1.04;89.08
78142;BME280;67393;52.620;13.482;2023-01-29T15:40:00;101626.19;;;1.05;89.32
78142;BME280;67393;52.620;13.482;2023-01-29T15:42:41;101627.09;;;1.07;89.31
78142;BME280;67393;52.620;13.482;2023-01-29T15:45:28;101614.94;;;1.08;88.47
78142;BME280;67393;52.620;13.482;2023-01-29T15:48:00;101624.50;;;1.07;88.94
78142;BME280;67393;52.620;13.482;2023-01-29T15:50:28;101611.41;;;1.07;88.23
78142;BME280;67393;52.620;13.482;2023-01-29T15:52:57;101619.25;;;1.07;88.74
78142;BME280;67393;52.620;13.482;2023-01-29T15:55:25;101608.81;;;1.07;88.38
78142;BME280;67393;52.620;13.482;2023-01-29T15:57:51;101606.16;;;1.06;88.57
78142;BME280;67393;52.620;13.482;2023-01-29T16:00:25;101608.78;;;1.06;88.42
78142;BME280;67393;52.620;13.482;2023-01-29T16:02:52;101603.53;;;1.04;88.31
78142;BME280;67393;52.620;13.482;2023-01-29T16:05:20;101601.72;;;1.03;88.02
78142;BME280;67393;52.620;13.482;2023-01-29T16:07:49;101608.75;;;1.04;87.93
78142;BME280;67393;52.620;13.482;2023-01-29T16:10:30;101600.06;;;1.05;88.15
78142;BME280;67393;52.620;13.482;2023-01-29T16:12:56;101589.59;;;1.05;88.16
78142;BME280;67393;52.620;13.482;2023-01-29T16:15:37;101593.97;;;1.06;87.58
78142;BME280;67393;52.620;13.482;2023-01-29T16:18:18;101593.97;;;1.06;87.82
78142;BME280;67393;52.620;13.482;2023-01-29T16:20:48;101603.56;;;1.07;88.05
78142;BME280;67393;52.620;13.482;2023-01-29T16:23:25;101600.09;;;1.07;87.11
78142;BME280;67393;52.620;13.482;2023-01-29T16:25:52;101603.56;;;1.07;87.58
78142;BME280;67393;52.620;13.482;2023-01-29T16:28:19;101596.66;;;1.09;86.83
78142;BME280;67393;52.620;13.482;2023-01-29T16:30:45;101598.44;;;1.10;86.72
78142;BME280;67393;52.620;13.482;2023-01-29T16:33:13;101598.44;;;1.10;86.86
78142;BME280;67393;52.620;13.482;2023-01-29T16:35:41;101598.41;;;1.09;86.75
78142;BME280;67393;52.620;13.482;2023-01-29T16:38:23;101594.06;;;1.09;86.13
78142;BME280;67393;52.620;13.482;2023-01-29T16:43:50;101593.25;;;1.12;85.48
78142;BME280;67393;52.620;13.482;2023-01-29T16:46:34;101590.66;;;1.12;85.10
78142;BME280;67393;52.620;13.482;2023-01-29T16:49:00;101587.13;;;1.11;85.62
78142;BME280;67393;52.620;13.482;2023-01-29T16:54:10;101587.19;;;1.13;84.89
78142;BME280;67393;52.620;13.482;2023-01-29T16:56:36;101592.41;;;1.13;84.72
78142;BME280;67393;52.620;13.482;2023-01-29T16:59:04;101580.22;;;1.13;84.94
78142;BME280;67393;52.620;13.482;2023-01-29T17:01:31;101583.69;;;1.12;84.75
78142;BME280;67393;52.620;13.482;2023-01-29T17:04:09;101571.50;;;1.13;85.08
78142;BME280;67393;52.620;13.482;2023-01-29T17:06:35;101570.63;;;1.14;84.65
78142;BME280;67393;52.620;13.482;2023-01-29T17:09:01;101566.34;;;1.16;84.78
78142;BME280;67393;52.620;13.482;2023-01-29T17:11:35;101553.28;;;1.16;84.25
78142;BME280;67393;52.620;13.482;2023-01-29T17:14:01;101555.03;;;1.17;84.41
78142;BME280;67393;52.620;13.482;2023-01-29T17:16:33;101556.78;;;1.18;83.72
78142;BME280;67393;52.620;13.482;2023-01-29T17:18:59;101547.19;;;1.17;83.49
78142;BME280;67393;52.620;13.482;2023-01-29T17:21:25;101556.75;;;1.16;83.80
78142;BME280;67393;52.620;13.482;2023-01-29T17:23:51;101554.16;;;1.18;83.28
78142;BME280;67393;52.620;13.482;2023-01-29T17:26:17;101548.06;;;1.17;83.64
78142;BME280;67393;52.620;13.482;2023-01-29T17:28:43;101550.69;;;1.19;83.43
78142;BME280;67393;52.620;13.482;2023-01-29T17:31:09;101544.59;;;1.18;83.22
78142;BME280;67393;52.620;13.482;2023-01-29T17:33:38;101535.03;;;1.19;83.29
78142;BME280;67393;52.620;13.482;2023-01-29T17:36:05;101535.94;;;1.19;83.09
78142;BME280;67393;52.620;13.482;2023-01-29T17:38:30;101534.19;;;1.20;82.71
78142;BME280;67393;52.620;13.482;2023-01-29T17:41:11;101532.47;;;1.20;82.82
78142;BME280;67393;52.620;13.482;2023-01-29T17:43:38;101509.81;;;1.21;82.63
78142;BME280;67393;52.620;13.482;2023-01-29T17:46:03;101522.88;;;1.21;82.34
78142;BME280;67393;52.620;13.482;2023-01-29T17:48:29;101521.19;;;1.23;82.37
78142;BME280;67393;52.620;13.482;2023-01-29T17:51:00;101507.28;;;1.24;82.42
78142;BME280;67393;52.620;13.482;2023-01-29T17:53:26;101501.16;;;1.24;82.19
78142;BME280;67393;52.620;13.482;2023-01-29T17:55:52;101498.56;;;1.24;82.24
78142;BME280;67393;52.620;13.482;2023-01-29T17:58:19;101481.16;;;1.26;81.85
78142;BME280;67393;52.620;13.482;2023-01-29T18:00:46;101486.34;;;1.24;82.00
78142;BME280;67393;52.620;13.482;2023-01-29T18:03:12;101474.16;;;1.25;82.26
78142;BME280;67393;52.620;13.482;2023-01-29T18:05:37;101466.31;;;1.23;81.90
78142;BME280;67393;52.620;13.482;2023-01-29T18:08:12;101461.97;;;1.25;81.95
78142;BME280;67393;52.620;13.482;2023-01-29T18:10:39;101449.75;;;1.24;82.34
78142;BME280;67393;52.620;13.482;2023-01-29T18:13:04;101457.63;;;1.26;81.83
78142;BME280;67393;52.620;13.482;2023-01-29T18:15:29;101449.69;;;1.22;82.16
78142;BME280;67393;52.620;13.482;2023-01-29T18:17:55;101455.88;;;1.25;82.12
78142;BME280;67393;52.620;13.482;2023-01-29T18:20:21;101459.34;;;1.24;82.48
78142;BME280;67393;52.620;13.482;2023-01-29T18:22:48;101444.53;;;1.24;82.27
78142;BME280;67393;52.620;13.482;2023-01-29T18:25:14;101454.97;;;1.24;82.22
78142;BME280;67393;52.620;13.482;2023-01-29T18:27:39;101461.09;;;1.26;82.13
78142;BME280;67393;52.620;13.482;2023-01-29T18:30:05;101456.75;;;1.25;82.49
78142;BME280;67393;52.620;13.482;2023-01-29T18:32:30;101452.38;;;1.24;82.23
78142;BME280;67393;52.620;13.482;2023-01-29T18:34:56;101450.63;;;1.23;81.95
78142;BME280;67393;52.620;13.482;2023-01-29T18:37:21;101443.59;;;1.22;82.23
78142;BME280;67393;52.620;13.482;2023-01-29T18:39:46;101445.31;;;1.20;82.38
78142;BME280;67393;52.620;13.482;2023-01-29T18:42:12;101440.09;;;1.20;82.05
78142;BME280;67393;52.620;13.482;2023-01-29T18:44:37;101434.81;;;1.18;82.46
78142;BME280;67393;52.620;13.482;2023-01-29T18:47:02;101438.28;;;1.19;82.16
78142;BME280;67393;52.620;13.482;2023-01-29T18:49:29;101442.63;;;1.18;81.95
78142;BME280;67393;52.620;13.482;2023-01-29T18:51:55;101451.34;;;1.17;82.48
78142;BME280;67393;52.620;13.482;2023-01-29T18:54:20;101443.47;;;1.16;82.71
78142;BME280;67393;52.620;13.482;2023-01-29T18:56:45;101432.09;;;1.14;82.33
78142;BME280;67393;52.620;13.482;2023-01-29T18:59:11;101432.91;;;1.11;81.97
78142;BME280;67393;52.620;13.482;2023-01-29T19:01:36;101429.41;;;1.11;82.58
78142;BME280;67393;52.620;13.482;2023-01-29T19:04:01;101427.63;;;1.08;82.81
78142;BME280;67393;52.620;13.482;2023-01-29T19:06:27;101425.84;;;1.07;82.68
78142;BME280;67393;52.620;13.482;2023-01-29T19:08:52;101414.50;;;1.07;82.33
78142;BME280;67393;52.620;13.482;2023-01-29T19:11:17;101413.59;;;1.05;82.34
78142;BME280;67393;52.620;13.482;2023-01-29T19:13:43;101414.41;;;1.02;82.73
78142;BME280;67393;52.620;13.482;2023-01-29T19:16:09;101398.72;;;1.02;82.95
78142;BME280;67393;52.620;13.482;2023-01-29T19:18:36;101394.28;;;0.96;82.93
78142;BME280;67393;52.620;13.482;2023-01-29T19:21:06;101400.31;;;0.95;83.36
78142;BME280;67393;52.620;13.482;2023-01-29T19:23:31;101386.38;;;0.95;83.01
78142;BME280;67393;52.620;13.482;2023-01-29T19:25:57;101392.47;;;0.94;83.29
78142;BME280;67393;52.620;13.482;2023-01-29T19:28:22;101368.94;;;0.94;83.42
78142;BME280;67393;52.620;13.482;2023-01-29T19:30:47;101374.06;;;0.89;83.87
78142;BME280;67393;52.620;13.482;2023-01-29T19:33:13;101366.06;;;0.82;84.52
78142;BME280;67393;52.620;13.482;2023-01-29T19:35:42;101365.91;;;0.74;85.38
78142;BME280;67393;52.620;13.482;2023-01-29T19:38:08;101358.00;;;0.72;85.32
78142;BME280;67393;52.620;13.482;2023-01-29T19:40:34;101358.00;;;0.72;85.27
78142;BME280;67393;52.620;13.482;2023-01-29T19:42:59;101351.06;;;0.73;85.71
78142;BME280;67393;52.620;13.482;2023-01-29T19:45:25;101355.41;;;0.72;85.61
78142;BME280;67393;52.620;13.482;2023-01-29T19:47:51;101345.91;;;0.76;85.31
78142;BME280;67393;52.620;13.482;2023-01-29T19:50:18;101346.75;;;0.73;85.64
78142;BME280;67393;52.620;13.482;2023-01-29T19:52:44;101353.81;;;0.79;84.95
78142;BME280;67393;52.620;13.482;2023-01-29T19:55:11;101349.44;;;0.78;85.46
78142;BME280;67393;52.620;13.482;2023-01-29T19:57:37;101344.38;;;0.86;84.57
78142;BME280;67393;52.620;13.482;2023-01-29T20:00:02;101331.31;;;0.86;83.92
78142;BME280;67393;52.620;13.482;2023-01-29T20:02:29;101337.50;;;0.89;83.86
78142;BME280;67393;52.620;13.482;2023-01-29T20:04:57;101336.63;;;0.89;83.67
78142;BME280;67393;52.620;13.482;2023-01-29T20:07:23;101322.75;;;0.93;83.25
78142;BME280;67393;52.620;13.482;2023-01-29T20:09:49;101318.50;;;0.98;82.34
78142;BME280;67393;52.620;13.482;2023-01-29T20:12:14;101320.31;;;1.01;81.65
78142;BME280;67393;52.620;13.482;2023-01-29T20:14:40;101307.25;;;1.02;81.83
78142;BME280;67393;52.620;13.482;2023-01-29T20:17:14;101303.78;;;1.03;82.08
78142;BME280;67393;52.620;13.482;2023-01-29T20:19:42;101290.69;;;1.00;81.74
78142;BME280;67393;52.620;13.482;2023-01-29T20:22:08;101294.09;;;0.97;82.21
78142;BME280;67393;52.620;13.482;2023-01-29T20:24:33;101273.94;;;0.92;82.76
78142;BME280;67393;52.620;13.482;2023-01-29T20:27:04;101276.53;;;0.89;82.91
78142;BME280;67393;52.620;13.482;2023-01-29T20:29:29;101280.75;;;0.84;83.63
